sensor_id;sensor_type;location;lat;lon;timestamp;temperature;humidity
7970;DHT22;4030;52.362;9.206;2023-11-18T00:00:31;8.10;94.30
7970;DHT22;4030;52.362;9.206;2023-11-18T00:02:58;8.10;94.30
7970;DHT22;4030;52.362;9.206;2023-11-18T00:05:24;8.10;94.30
7970;DHT22;4030;52.362;9.206;2023-11-18T00:07:50;8.10;94.30
7970;DHT22;4030;52.362;9.206;2023-11-18T00:10:16;8.00;94.30
7970;DHT22;4030;52.362;9.206;2023-11-18T00:12:42;8.10;94.30
7970;DHT22;4030;52.362;9.206;2023-11-18T00:15:09;8.00;94.30
7970;DHT22;4030;52.362;9.206;2023-11-18T00:17:37;8.00;94.30
7970;DHT22;4030;52.362;9.206;2023-11-18T00:20:03;8.00;94.30
7970;DHT22;4030;52.362;9.206;2023-11-18T00:22:37;8.00;94.30
7970;DHT22;4030;52.362;9.206;2023-11-18T00:25:04;8.10;94.40
7970;DHT22;4030;52.362;9.206;2023-11-18T00:27:48;8.10;94.40
7970;DHT22;4030;52.362;9.206;2023-11-18T00:30:13;8.00;94.40
7970;DHT22;4030;52.362;9.206;2023-11-18T00:32:39;8.00;94.40
7970;DHT22;4030;52.362;9.206;2023-11-18T00:35:06;8.10;94.40
7970;DHT22;4030;52.362;9.206;2023-11-18T00:37:32;8.10;94.40
7970;DHT22;4030;52.362;9.206;2023-11-18T00:39:58;8.10;94.50
7970;DHT22;4030;52.362;9.206;2023-11-18T00:42:24;8.10;94.50
7970;DHT22;4030;52.362;9.206;2023-11-18T00:44:49;8.10;94.50
7970;DHT22;4030;52.362;9.206;2023-11-18T00:47:15;8.10;94.50
7970;DHT22;4030;52.362;9.206;2023-11-18T00:49:41;8.10;94.50
7970;DHT22;4030;52.362;9.206;2023-11-18T00:52:07;8.10;94.50
7970;DHT22;4030;52.362;9.206;2023-11-18T00:54:34;8.10;94.50
7970;DHT22;4030;52.362;9.206;2023-11-18T00:57:01;8.10;94.50
7970;DHT22;4030;52.362;9.206;2023-11-18T00:59:27;8.10;94.50
7970;DHT22;4030;52.362;9.206;2023-11-18T01:01:53;8.10;94.60
7970;DHT22;4030;52.362;9.206;2023-11-18T01:04:19;8.00;94.50
7970;DHT22;4030;52.362;9.206;2023-11-18T01:06:45;8.10;94.60
7970;DHT22;4030;52.362;9.206;2023-11-18T01:09:11;8.10;94.60
7970;DHT22;4030;52.362;9.206;2023-11-18T01:11:37;8.10;95.00
7970;DHT22;4030;52.362;9.206;2023-11-18T01:14:03;8.10;94.60
7970;DHT22;4030;52.362;9.206;2023-11-18T01:16:29;8.10;94.70
7970;DHT22;4030;52.362;9.206;2023-11-18T01:18:55;8.10;94.70
7970;DHT22;4030;52.362;9.206;2023-11-18T01:21:20;8.10;94.70
7970;DHT22;4030;52.362;9.206;2023-11-18T01:23:47;8.20;94.70
7970;DHT22;4030;52.362;9.206;2023-11-18T01:26:14;8.00;94.60
7970;DHT22;4030;52.362;9.206;2023-11-18T01:28:40;8.10;94.70
7970;DHT22;4030;52.362;9.206;2023-11-18T01:31:09;8.10;94.70
7970;DHT22;4030;52.362;9.206;2023-11-18T01:33:39;8.10;94.70
7970;DHT22;4030;52.362;9.206;2023-11-18T01:36:09;8.10;94.70
7970;DHT22;4030;52.362;9.206;2023-11-18T01:38:36;8.10;94.70
7970;DHT22;4030;52.362;9.206;2023-11-18T01:41:06;8.10;94.70
7970;DHT22;4030;52.362;9.206;2023-11-18T01:43:32;8.10;94.70
7970;DHT22;4030;52.362;9.206;2023-11-18T01:46:03;8.10;94.70
7970;DHT22;4030;52.362;9.206;2023-11-18T01:48:33;8.10;94.70
7970;DHT22;4030;52.362;9.206;2023-11-18T01:51:00;8.10;94.70
7970;DHT22;4030;52.362;9.206;2023-11-18T01:53:27;8.10;94.80
7970;DHT22;4030;52.362;9.206;2023-11-18T01:55:54;10.90;95.60
7970;DHT22;4030;52.362;9.206;2023-11-18T01:58:20;8.00;94.70
7970;DHT22;4030;52.362;9.206;2023-11-18T02:00:48;8.00;94.70
7970;DHT22;4030;52.362;9.206;2023-11-18T02:03:16;8.00;94.70
7970;DHT22;4030;52.362;9.206;2023-11-18T02:05:42;8.00;94.70
7970;DHT22;4030;52.362;9.206;2023-11-18T02:08:09;8.00;94.70
7970;DHT22;4030;52.362;9.206;2023-11-18T02:10:44;7.90;94.60
7970;DHT22;4030;52.362;9.206;2023-11-18T02:13:23;7.90;94.60
7970;DHT22;4030;52.362;9.206;2023-11-18T02:15:53;7.90;94.60
7970;DHT22;4030;52.362;9.206;2023-11-18T02:18:28;7.90;94.50
7970;DHT22;4030;52.362;9.206;2023-11-18T02:20:55;7.90;94.50
7970;DHT22;4030;52.362;9.206;2023-11-18T02:23:28;7.80;94.50
7970;DHT22;4030;52.362;9.206;2023-11-18T02:25:54;7.80;94.20
7970;DHT22;4030;52.362;9.206;2023-11-18T02:28:21;7.80;94.50
7970;DHT22;4030;52.362;9.206;2023-11-18T02:30:48;7.80;94.50
7970;DHT22;4030;52.362;9.206;2023-11-18T02:35:59;7.80;94.50
7970;DHT22;4030;52.362;9.206;2023-11-18T02:38:30;7.70;94.50
7970;DHT22;4030;52.362;9.206;2023-11-18T02:41:09;7.70;94.40
7970;DHT22;4030;52.362;9.206;2023-11-18T02:43:37;7.70;94.40
7970;DHT22;4030;52.362;9.206;2023-11-18T02:46:06;7.70;94.40
7970;DHT22;4030;52.362;9.206;2023-11-18T02:48:33;7.70;94.40
7970;DHT22;4030;52.362;9.206;2023-11-18T02:50:59;7.70;94.40
7970;DHT22;4030;52.362;9.206;2023-11-18T02:53:25;7.70;94.40
7970;DHT22;4030;52.362;9.206;2023-11-18T02:55:51;7.70;94.80
7970;DHT22;4030;52.362;9.206;2023-11-18T02:58:18;7.60;94.40
7970;DHT22;4030;52.362;9.206;2023-11-18T03:00:44;7.60;94.40
7970;DHT22;4030;52.362;9.206;2023-11-18T03:03:10;7.60;94.50
7970;DHT22;4030;52.362;9.206;2023-11-18T03:05:37;7.60;94.40
7970;DHT22;4030;52.362;9.206;2023-11-18T03:08:03;7.60;94.40
7970;DHT22;4030;52.362;9.206;2023-11-18T03:10:32;7.60;94.40
7970;DHT22;4030;52.362;9.206;2023-11-18T03:13:00;7.60;94.40
7970;DHT22;4030;52.362;9.206;2023-11-18T03:15:27;7.60;94.40
7970;DHT22;4030;52.362;9.206;2023-11-18T03:17:53;7.50;94.30
7970;DHT22;4030;52.362;9.206;2023-11-18T03:20:22;7.50;94.30
7970;DHT22;4030;52.362;9.206;2023-11-18T03:22:49;7.50;94.30
7970;DHT22;4030;52.362;9.206;2023-11-18T03:25:17;7.50;94.30
7970;DHT22;4030;52.362;9.206;2023-11-18T03:27:45;7.50;94.30
7970;DHT22;4030;52.362;9.206;2023-11-18T03:30:11;7.50;94.30
7970;DHT22;4030;52.362;9.206;2023-11-18T03:32:38;7.50;94.30
7970;DHT22;4030;52.362;9.206;2023-11-18T03:35:06;7.40;94.20
7970;DHT22;4030;52.362;9.206;2023-11-18T03:37:37;7.40;94.20
7970;DHT22;4030;52.362;9.206;2023-11-18T03:40:10;7.40;94.30
7970;DHT22;4030;52.362;9.206;2023-11-18T03:42:37;7.40;94.20
7970;DHT22;4030;52.362;9.206;2023-11-18T03:45:04;7.40;94.20
7970;DHT22;4030;52.362;9.206;2023-11-18T03:47:30;7.40;94.20
7970;DHT22;4030;52.362;9.206;2023-11-18T03:49:56;7.30;94.10
7970;DHT22;4030;52.362;9.206;2023-11-18T03:52:23;7.30;94.10
7970;DHT22;4030;52.362;9.206;2023-11-18T03:54:49;7.30;94.10
7970;DHT22;4030;52.362;9.206;2023-11-18T03:57:15;7.30;94.10
7970;DHT22;4030;52.362;9.206;2023-11-18T03:59:40;7.30;94.10
7970;DHT22;4030;52.362;9.206;2023-11-18T04:02:07;7.20;94.00
7970;DHT22;4030;52.362;9.206;2023-11-18T04:04:33;7.20;94.00
7970;DHT22;4030;52.362;9.206;2023-11-18T04:06:59;7.20;94.00
7970;DHT22;4030;52.362;9.206;2023-11-18T04:09:27;7.20;94.00
7970;DHT22;4030;52.362;9.206;2023-11-18T04:11:52;7.20;93.90
7970;DHT22;4030;52.362;9.206;2023-11-18T04:14:18;7.10;93.90
7970;DHT22;4030;52.362;9.206;2023-11-18T04:16:48;7.10;93.90
7970;DHT22;4030;52.362;9.206;2023-11-18T04:19:14;7.10;93.90
7970;DHT22;4030;52.362;9.206;2023-11-18T04:21:41;7.10;93.80
7970;DHT22;4030;52.362;9.206;2023-11-18T04:24:07;7.00;93.80
7970;DHT22;4030;52.362;9.206;2023-11-18T04:26:33;7.00;93.80
7970;DHT22;4030;52.362;9.206;2023-11-18T04:28:58;7.00;93.80
7970;DHT22;4030;52.362;9.206;2023-11-18T04:31:25;7.00;93.80
7970;DHT22;4030;52.362;9.206;2023-11-18T04:33:50;7.00;93.80
7970;DHT22;4030;52.362;9.206;2023-11-18T04:36:16;7.00;93.80
7970;DHT22;4030;52.362;9.206;2023-11-18T04:38:44;7.00;93.80
7970;DHT22;4030;52.362;9.206;2023-11-18T04:41:10;7.00;93.70
7970;DHT22;4030;52.362;9.206;2023-11-18T04:43:35;6.90;93.70
7970;DHT22;4030;52.362;9.206;2023-11-18T04:46:01;6.90;93.70
7970;DHT22;4030;52.362;9.206;2023-11-18T04:48:27;6.90;93.70
7970;DHT22;4030;52.362;9.206;2023-11-18T04:50:52;6.90;93.70
7970;DHT22;4030;52.362;9.206;2023-11-18T04:53:18;6.90;93.70
7970;DHT22;4030;52.362;9.206;2023-11-18T04:55:44;6.90;93.70
7970;DHT22;4030;52.362;9.206;2023-11-18T04:58:10;7.00;93.70
7970;DHT22;4030;52.362;9.206;2023-11-18T05:00:39;6.90;93.70
7970;DHT22;4030;52.362;9.206;2023-11-18T05:03:05;6.90;93.70
7970;DHT22;4030;52.362;9.206;2023-11-18T05:05:37;6.90;93.70
7970;DHT22;4030;52.362;9.206;2023-11-18T05:08:04;6.90;93.70
7970;DHT22;4030;52.362;9.206;2023-11-18T05:10:32;6.90;93.70
7970;DHT22;4030;52.362;9.206;2023-11-18T05:12:59;6.90;93.70
7970;DHT22;4030;52.362;9.206;2023-11-18T05:15:24;6.90;93.70
7970;DHT22;4030;52.362;9.206;2023-11-18T05:17:54;6.90;93.70
7970;DHT22;4030;52.362;9.206;2023-11-18T05:20:20;6.90;93.70
7970;DHT22;4030;52.362;9.206;2023-11-18T05:22:47;6.90;93.70
7970;DHT22;4030;52.362;9.206;2023-11-18T05:25:13;6.90;93.70
7970;DHT22;4030;52.362;9.206;2023-11-18T05:27:39;6.90;93.70
7970;DHT22;4030;52.362;9.206;2023-11-18T05:30:10;6.90;93.70
7970;DHT22;4030;52.362;9.206;2023-11-18T05:32:36;6.90;93.70
7970;DHT22;4030;52.362;9.206;2023-11-18T05:35:03;6.80;93.60
7970;DHT22;4030;52.362;9.206;2023-11-18T05:37:30;6.80;93.60
7970;DHT22;4030;52.362;9.206;2023-11-18T05:40:01;6.80;93.60
7970;DHT22;4030;52.362;9.206;2023-11-18T05:42:33;6.80;93.60
7970;DHT22;4030;52.362;9.206;2023-11-18T05:45:04;6.80;93.60
7970;DHT22;4030;52.362;9.206;2023-11-18T05:47:32;6.80;93.60
7970;DHT22;4030;52.362;9.206;2023-11-18T05:50:00;6.80;93.60
7970;DHT22;4030;52.362;9.206;2023-11-18T05:52:26;6.80;93.60
7970;DHT22;4030;52.362;9.206;2023-11-18T05:54:52;6.80;93.60
7970;DHT22;4030;52.362;9.206;2023-11-18T05:57:19;6.80;93.60
7970;DHT22;4030;52.362;9.206;2023-11-18T05:59:45;6.70;93.60
7970;DHT22;4030;52.362;9.206;2023-11-18T06:02:13;6.70;93.60
7970;DHT22;4030;52.362;9.206;2023-11-18T06:04:44;6.70;93.60
7970;DHT22;4030;52.362;9.206;2023-11-18T06:07:10;6.70;93.60
7970;DHT22;4030;52.362;9.206;2023-11-18T06:09:39;6.70;93.60
7970;DHT22;4030;52.362;9.206;2023-11-18T06:12:07;6.70;93.60
7970;DHT22;4030;52.362;9.206;2023-11-18T06:14:36;6.70;93.60
7970;DHT22;4030;52.362;9.206;2023-11-18T06:17:03;6.70;93.60
7970;DHT22;4030;52.362;9.206;2023-11-18T06:19:28;6.60;93.50
7970;DHT22;4030;52.362;9.206;2023-11-18T06:21:54;6.60;93.60
7970;DHT22;4030;52.362;9.206;2023-11-18T06:24:20;6.60;93.50
7970;DHT22;4030;52.362;9.206;2023-11-18T06:26:47;6.60;93.60
7970;DHT22;4030;52.362;9.206;2023-11-18T06:29:14;6.60;93.50
7970;DHT22;4030;52.362;9.206;2023-11-18T06:31:41;6.60;93.50
7970;DHT22;4030;52.362;9.206;2023-11-18T06:34:08;6.60;93.60
7970;DHT22;4030;52.362;9.206;2023-11-18T06:36:33;6.60;93.50
7970;DHT22;4030;52.362;9.206;2023-11-18T06:38:59;6.50;93.40
7970;DHT22;4030;52.362;9.206;2023-11-18T06:41:25;6.50;93.40
7970;DHT22;4030;52.362;9.206;2023-11-18T06:43:58;6.50;93.40
7970;DHT22;4030;52.362;9.206;2023-11-18T06:46:32;6.50;93.40
7970;DHT22;4030;52.362;9.206;2023-11-18T06:49:00;6.50;93.40
7970;DHT22;4030;52.362;9.206;2023-11-18T06:51:31;6.50;93.40
7970;DHT22;4030;52.362;9.206;2023-11-18T06:54:00;6.50;93.40
7970;DHT22;4030;52.362;9.206;2023-11-18T06:56:29;6.40;93.30
7970;DHT22;4030;52.362;9.206;2023-11-18T06:58:55;6.40;93.30
7970;DHT22;4030;52.362;9.206;2023-11-18T07:01:22;6.40;93.30
7970;DHT22;4030;52.362;9.206;2023-11-18T07:03:48;6.40;93.30
7970;DHT22;4030;52.362;9.206;2023-11-18T07:06:18;6.50;93.40
7970;DHT22;4030;52.362;9.206;2023-11-18T07:08:52;6.40;93.30
7970;DHT22;4030;52.362;9.206;2023-11-18T07:11:20;6.50;93.30
7970;DHT22;4030;52.362;9.206;2023-11-18T07:13:47;6.50;93.30
7970;DHT22;4030;52.362;9.206;2023-11-18T07:16:14;6.50;93.30
7970;DHT22;4030;52.362;9.206;2023-11-18T07:18:40;6.60;93.30
7970;DHT22;4030;52.362;9.206;2023-11-18T07:21:09;6.60;93.30
7970;DHT22;4030;52.362;9.206;2023-11-18T07:23:35;6.60;93.30
7970;DHT22;4030;52.362;9.206;2023-11-18T07:26:02;6.70;93.30
7970;DHT22;4030;52.362;9.206;2023-11-18T07:28:31;6.70;93.30
7970;DHT22;4030;52.362;9.206;2023-11-18T07:30:57;6.70;93.30
7970;DHT22;4030;52.362;9.206;2023-11-18T07:33:23;6.70;93.30
7970;DHT22;4030;52.362;9.206;2023-11-18T07:35:49;6.80;93.30
7970;DHT22;4030;52.362;9.206;2023-11-18T07:38:16;6.80;93.30
7970;DHT22;4030;52.362;9.206;2023-11-18T07:40:42;7.80;93.80
7970;DHT22;4030;52.362;9.206;2023-11-18T07:43:11;6.80;93.40
7970;DHT22;4030;52.362;9.206;2023-11-18T07:45:38;6.90;93.40
7970;DHT22;4030;52.362;9.206;2023-11-18T07:48:08;6.90;93.40
7970;DHT22;4030;52.362;9.206;2023-11-18T07:50:43;6.90;93.40
7970;DHT22;4030;52.362;9.206;2023-11-18T07:53:12;7.00;93.50
7970;DHT22;4030;52.362;9.206;2023-11-18T07:55:39;7.00;93.50
7970;DHT22;4030;52.362;9.206;2023-11-18T07:58:11;7.10;93.50
7970;DHT22;4030;52.362;9.206;2023-11-18T08:00:38;7.10;93.50
7970;DHT22;4030;52.362;9.206;2023-11-18T08:03:09;7.10;93.50
7970;DHT22;4030;52.362;9.206;2023-11-18T08:05:42;7.20;93.60
7970;DHT22;4030;52.362;9.206;2023-11-18T08:08:13;7.30;93.60
7970;DHT22;4030;52.362;9.206;2023-11-18T08:10:40;7.30;93.60
7970;DHT22;4030;52.362;9.206;2023-11-18T08:13:10;7.40;93.60
7970;DHT22;4030;52.362;9.206;2023-11-18T08:15:40;7.40;93.60
7970;DHT22;4030;52.362;9.206;2023-11-18T08:18:07;7.40;93.60
7970;DHT22;4030;52.362;9.206;2023-11-18T08:20:35;7.50;93.60
7970;DHT22;4030;52.362;9.206;2023-11-18T08:23:01;7.60;93.60
7970;DHT22;4030;52.362;9.206;2023-11-18T08:25:27;7.60;93.60
7970;DHT22;4030;52.362;9.206;2023-11-18T08:27:52;7.70;93.70
7970;DHT22;4030;52.362;9.206;2023-11-18T08:30:18;7.70;93.60
7970;DHT22;4030;52.362;9.206;2023-11-18T08:32:46;7.70;93.60
7970;DHT22;4030;52.362;9.206;2023-11-18T08:35:13;7.80;93.60
7970;DHT22;4030;52.362;9.206;2023-11-18T08:37:41;7.90;93.60
7970;DHT22;4030;52.362;9.206;2023-11-18T08:40:08;7.90;93.60
7970;DHT22;4030;52.362;9.206;2023-11-18T08:42:58;7.90;93.60
7970;DHT22;4030;52.362;9.206;2023-11-18T08:45:25;8.00;93.70
7970;DHT22;4030;52.362;9.206;2023-11-18T08:47:57;8.10;93.70
7970;DHT22;4030;52.362;9.206;2023-11-18T08:50:25;8.10;93.70
7970;DHT22;4030;52.362;9.206;2023-11-18T08:52:52;8.20;94.10
7970;DHT22;4030;52.362;9.206;2023-11-18T08:55:27;8.20;93.70
7970;DHT22;4030;52.362;9.206;2023-11-18T08:58:07;8.20;93.70
7970;DHT22;4030;52.362;9.206;2023-11-18T09:00:54;8.30;93.60
7970;DHT22;4030;52.362;9.206;2023-11-18T09:03:25;8.40;93.60
7970;DHT22;4030;52.362;9.206;2023-11-18T09:05:59;8.50;93.60
7970;DHT22;4030;52.362;9.206;2023-11-18T09:08:30;8.50;93.60
7970;DHT22;4030;52.362;9.206;2023-11-18T09:11:04;8.60;93.60
7970;DHT22;4030;52.362;9.206;2023-11-18T09:13:32;8.70;93.50
7970;DHT22;4030;52.362;9.206;2023-11-18T09:16:04;8.80;93.50
7970;DHT22;4030;52.362;9.206;2023-11-18T09:18:37;8.90;93.40
7970;DHT22;4030;52.362;9.206;2023-11-18T09:21:06;9.10;93.30
7970;DHT22;4030;52.362;9.206;2023-11-18T09:23:33;9.20;93.10
7970;DHT22;4030;52.362;9.206;2023-11-18T09:26:00;9.40;93.00
7970;DHT22;4030;52.362;9.206;2023-11-18T09:28:27;9.50;92.90
7970;DHT22;4030;52.362;9.206;2023-11-18T09:30:56;9.60;92.80
7970;DHT22;4030;52.362;9.206;2023-11-18T09:33:29;9.70;92.70
7970;DHT22;4030;52.362;9.206;2023-11-18T09:36:06;9.90;92.80
7970;DHT22;4030;52.362;9.206;2023-11-18T09:38:37;10.00;92.30
7970;DHT22;4030;52.362;9.206;2023-11-18T09:41:07;10.30;92.10
7970;DHT22;4030;52.362;9.206;2023-11-18T09:43:37;10.50;91.80
7970;DHT22;4030;52.362;9.206;2023-11-18T09:46:17;10.90;91.60
7970;DHT22;4030;52.362;9.206;2023-11-18T09:51:41;11.50;90.80
7970;DHT22;4030;52.362;9.206;2023-11-18T09:54:36;11.80;90.50
7970;DHT22;4030;52.362;9.206;2023-11-18T09:57:35;12.10;90.10
7970;DHT22;4030;52.362;9.206;2023-11-18T10:00:06;12.40;89.90
7970;DHT22;4030;52.362;9.206;2023-11-18T10:02:47;12.50;89.40
7970;DHT22;4030;52.362;9.206;2023-11-18T10:05:13;12.60;89.00
7970;DHT22;4030;52.362;9.206;2023-11-18T10:07:42;12.50;89.20
7970;DHT22;4030;52.362;9.206;2023-11-18T10:10:08;12.30;89.40
7970;DHT22;4030;52.362;9.206;2023-11-18T10:12:43;12.10;89.80
7970;DHT22;4030;52.362;9.206;2023-11-18T10:15:13;11.90;90.10
7970;DHT22;4030;52.362;9.206;2023-11-18T10:17:42;11.70;90.20
7970;DHT22;4030;52.362;9.206;2023-11-18T10:20:47;11.60;90.40
7970;DHT22;4030;52.362;9.206;2023-11-18T10:23:18;11.40;90.50
7970;DHT22;4030;52.362;9.206;2023-11-18T10:25:56;11.30;90.70
7970;DHT22;4030;52.362;9.206;2023-11-18T10:28:26;11.20;90.80
7970;DHT22;4030;52.362;9.206;2023-11-18T10:31:06;11.10;91.00
7970;DHT22;4030;52.362;9.206;2023-11-18T10:33:39;11.00;91.00
7970;DHT22;4030;52.362;9.206;2023-11-18T10:36:20;11.00;91.10
7970;DHT22;4030;52.362;9.206;2023-11-18T10:38:51;10.90;91.10
7970;DHT22;4030;52.362;9.206;2023-11-18T10:41:21;10.90;91.20
7970;DHT22;4030;52.362;9.206;2023-11-18T10:43:47;10.90;91.20
7970;DHT22;4030;52.362;9.206;2023-11-18T10:46:16;10.90;91.30
7970;DHT22;4030;52.362;9.206;2023-11-18T10:48:47;10.90;91.20
7970;DHT22;4030;52.362;9.206;2023-11-18T10:51:20;10.80;91.20
7970;DHT22;4030;52.362;9.206;2023-11-18T10:53:51;10.80;91.20
7970;DHT22;4030;52.362;9.206;2023-11-18T10:56:29;10.80;91.20
7970;DHT22;4030;52.362;9.206;2023-11-18T10:58:56;10.80;91.10
7970;DHT22;4030;52.362;9.206;2023-11-18T11:01:34;10.90;91.10
7970;DHT22;4030;52.362;9.206;2023-11-18T11:04:04;10.90;90.90
7970;DHT22;4030;52.362;9.206;2023-11-18T11:06:32;11.00;90.80
7970;DHT22;4030;52.362;9.206;2023-11-18T11:08:58;11.10;90.70
7970;DHT22;4030;52.362;9.206;2023-11-18T11:11:25;11.40;90.50
7970;DHT22;4030;52.362;9.206;2023-11-18T11:13:58;11.90;89.80
7970;DHT22;4030;52.362;9.206;2023-11-18T11:16:43;12.20;88.50
7970;DHT22;4030;52.362;9.206;2023-11-18T11:19:26;12.20;88.20
7970;DHT22;4030;52.362;9.206;2023-11-18T11:22:10;12.10;88.10
7970;DHT22;4030;52.362;9.206;2023-11-18T11:24:54;12.10;88.10
7970;DHT22;4030;52.362;9.206;2023-11-18T11:27:38;12.10;87.80
7970;DHT22;4030;52.362;9.206;2023-11-18T11:30:21;12.10;87.70
7970;DHT22;4030;52.362;9.206;2023-11-18T11:32:52;12.00;87.90
7970;DHT22;4030;52.362;9.206;2023-11-18T11:35:30;11.90;88.10
7970;DHT22;4030;52.362;9.206;2023-11-18T11:37:56;11.80;88.10
7970;DHT22;4030;52.362;9.206;2023-11-18T11:40:31;11.80;88.40
7970;DHT22;4030;52.362;9.206;2023-11-18T11:42:57;11.70;88.60
7970;DHT22;4030;52.362;9.206;2023-11-18T11:45:30;11.60;88.60
7970;DHT22;4030;52.362;9.206;2023-11-18T11:47:59;11.50;88.90
7970;DHT22;4030;52.362;9.206;2023-11-18T11:54:15;11.40;89.30
7970;DHT22;4030;52.362;9.206;2023-11-18T11:56:49;11.30;89.50
7970;DHT22;4030;52.362;9.206;2023-11-18T11:59:56;11.30;89.60
7970;DHT22;4030;52.362;9.206;2023-11-18T12:02:23;11.30;89.80
7970;DHT22;4030;52.362;9.206;2023-11-18T12:04:53;11.30;89.90
7970;DHT22;4030;52.362;9.206;2023-11-18T12:07:25;11.30;90.00
7970;DHT22;4030;52.362;9.206;2023-11-18T12:09:56;11.30;90.00
7970;DHT22;4030;52.362;9.206;2023-11-18T12:12:25;11.30;90.00
7970;DHT22;4030;52.362;9.206;2023-11-18T12:14:57;11.30;90.10
7970;DHT22;4030;52.362;9.206;2023-11-18T12:20:40;11.20;90.00
7970;DHT22;4030;52.362;9.206;2023-11-18T12:23:15;11.20;90.00
7970;DHT22;4030;52.362;9.206;2023-11-18T12:25:44;11.20;90.10
7970;DHT22;4030;52.362;9.206;2023-11-18T12:28:28;11.20;90.00
7970;DHT22;4030;52.362;9.206;2023-11-18T12:31:03;11.20;90.20
7970;DHT22;4030;52.362;9.206;2023-11-18T12:36:37;11.00;90.10
7970;DHT22;4030;52.362;9.206;2023-11-18T12:40:02;11.00;90.20
7970;DHT22;4030;52.362;9.206;2023-11-18T12:45:23;10.80;90.20
7970;DHT22;4030;52.362;9.206;2023-11-18T12:48:05;10.80;90.40
7970;DHT22;4030;52.362;9.206;2023-11-18T12:50:39;10.70;90.40
7970;DHT22;4030;52.362;9.206;2023-11-18T12:53:12;10.60;90.30
7970;DHT22;4030;52.362;9.206;2023-11-18T12:55:40;10.50;90.30
7970;DHT22;4030;52.362;9.206;2023-11-18T12:58:07;10.50;90.40
7970;DHT22;4030;52.362;9.206;2023-11-18T13:00:33;10.40;90.40
7970;DHT22;4030;52.362;9.206;2023-11-18T13:03:01;10.40;90.50
7970;DHT22;4030;52.362;9.206;2023-11-18T13:05:26;10.30;90.50
7970;DHT22;4030;52.362;9.206;2023-11-18T13:07:56;10.30;90.60
7970;DHT22;4030;52.362;9.206;2023-11-18T13:10:23;10.30;90.70
7970;DHT22;4030;52.362;9.206;2023-11-18T13:12:55;10.20;90.70
7970;DHT22;4030;52.362;9.206;2023-11-18T13:15:21;10.20;90.70
7970;DHT22;4030;52.362;9.206;2023-11-18T13:18:03;10.10;90.70
7970;DHT22;4030;52.362;9.206;2023-11-18T13:20:33;10.10;90.80
7970;DHT22;4030;52.362;9.206;2023-11-18T13:23:01;10.10;90.80
7970;DHT22;4030;52.362;9.206;2023-11-18T13:25:34;10.00;90.80
7970;DHT22;4030;52.362;9.206;2023-11-18T13:28:03;10.00;90.90
7970;DHT22;4030;52.362;9.206;2023-11-18T13:30:30;10.00;90.90
7970;DHT22;4030;52.362;9.206;2023-11-18T13:32:56;10.00;90.90
7970;DHT22;4030;52.362;9.206;2023-11-18T13:35:22;9.90;91.50
7970;DHT22;4030;52.362;9.206;2023-11-18T13:37:49;9.90;91.40
7970;DHT22;4030;52.362;9.206;2023-11-18T13:40:16;9.90;91.50
7970;DHT22;4030;52.362;9.206;2023-11-18T13:42:43;9.90;91.50
7970;DHT22;4030;52.362;9.206;2023-11-18T13:45:13;9.80;91.50
7970;DHT22;4030;52.362;9.206;2023-11-18T13:47:49;9.80;91.50
7970;DHT22;4030;52.362;9.206;2023-11-18T13:50:22;9.80;91.50
7970;DHT22;4030;52.362;9.206;2023-11-18T13:52:47;9.80;91.50
7970;DHT22;4030;52.362;9.206;2023-11-18T13:55:15;9.70;91.40
7970;DHT22;4030;52.362;9.206;2023-11-18T13:57:54;9.70;91.50
7970;DHT22;4030;52.362;9.206;2023-11-18T14:00:22;9.70;91.50
7970;DHT22;4030;52.362;9.206;2023-11-18T14:02:49;9.60;91.50
7970;DHT22;4030;52.362;9.206;2023-11-18T14:05:17;9.60;91.60
7970;DHT22;4030;52.362;9.206;2023-11-18T14:07:45;9.60;91.60
7970;DHT22;4030;52.362;9.206;2023-11-18T14:10:13;9.60;91.70
7970;DHT22;4030;52.362;9.206;2023-11-18T14:12:39;9.60;91.70
7970;DHT22;4030;52.362;9.206;2023-11-18T14:15:06;9.60;91.70
7970;DHT22;4030;52.362;9.206;2023-11-18T14:17:35;9.50;91.70
7970;DHT22;4030;52.362;9.206;2023-11-18T14:20:02;9.50;91.80
7970;DHT22;4030;52.362;9.206;2023-11-18T14:22:27;9.50;91.80
7970;DHT22;4030;52.362;9.206;2023-11-18T14:24:53;9.50;91.80
7970;DHT22;4030;52.362;9.206;2023-11-18T14:27:19;9.50;92.20
7970;DHT22;4030;52.362;9.206;2023-11-18T14:29:45;9.40;91.80
7970;DHT22;4030;52.362;9.206;2023-11-18T14:32:11;9.40;91.80
7970;DHT22;4030;52.362;9.206;2023-11-18T14:34:39;9.40;91.90
7970;DHT22;4030;52.362;9.206;2023-11-18T14:37:07;9.40;91.90
7970;DHT22;4030;52.362;9.206;2023-11-18T14:39:33;9.40;92.00
7970;DHT22;4030;52.362;9.206;2023-11-18T14:42:01;9.40;91.90
7970;DHT22;4030;52.362;9.206;2023-11-18T14:44:27;9.40;92.00
7970;DHT22;4030;52.362;9.206;2023-11-18T14:46:52;9.30;92.00
7970;DHT22;4030;52.362;9.206;2023-11-18T14:49:20;9.40;92.10
7970;DHT22;4030;52.362;9.206;2023-11-18T14:51:45;9.30;92.10
7970;DHT22;4030;52.362;9.206;2023-11-18T14:54:11;9.30;92.10
7970;DHT22;4030;52.362;9.206;2023-11-18T14:56:37;9.30;92.10
7970;DHT22;4030;52.362;9.206;2023-11-18T14:59:03;9.30;92.20
7970;DHT22;4030;52.362;9.206;2023-11-18T15:01:30;9.20;92.10
7970;DHT22;4030;52.362;9.206;2023-11-18T15:03:56;9.20;92.20
7970;DHT22;4030;52.362;9.206;2023-11-18T15:06:28;9.20;92.20
7970;DHT22;4030;52.362;9.206;2023-11-18T15:08:54;9.20;92.30
7970;DHT22;4030;52.362;9.206;2023-11-18T15:11:23;9.10;92.30
7970;DHT22;4030;52.362;9.206;2023-11-18T15:13:52;9.10;92.30
7970;DHT22;4030;52.362;9.206;2023-11-18T15:16:19;9.10;92.40
7970;DHT22;4030;52.362;9.206;2023-11-18T15:18:44;9.10;92.40
7970;DHT22;4030;52.362;9.206;2023-11-18T15:21:15;9.10;92.70
7970;DHT22;4030;52.362;9.206;2023-11-18T15:23:41;9.00;92.60
7970;DHT22;4030;52.362;9.206;2023-11-18T15:26:07;9.00;92.70
7970;DHT22;4030;52.362;9.206;2023-11-18T15:28:34;9.00;92.70
7970;DHT22;4030;52.362;9.206;2023-11-18T15:31:00;8.90;92.70
7970;DHT22;4030;52.362;9.206;2023-11-18T15:33:28;8.90;92.80
7970;DHT22;4030;52.362;9.206;2023-11-18T15:35:53;8.90;92.90
7970;DHT22;4030;52.362;9.206;2023-11-18T15:38:19;8.90;93.00
7970;DHT22;4030;52.362;9.206;2023-11-18T15:40:47;8.90;93.10
7970;DHT22;4030;52.362;9.206;2023-11-18T15:43:15;8.80;93.10
7970;DHT22;4030;52.362;9.206;2023-11-18T15:45:42;8.80;93.10
7970;DHT22;4030;52.362;9.206;2023-11-18T15:48:10;8.80;93.20
7970;DHT22;4030;52.362;9.206;2023-11-18T15:50:36;8.80;93.20
7970;DHT22;4030;52.362;9.206;2023-11-18T15:53:05;8.80;93.30
7970;DHT22;4030;52.362;9.206;2023-11-18T15:55:31;8.70;93.30
7970;DHT22;4030;52.362;9.206;2023-11-18T15:57:57;8.70;93.30
7970;DHT22;4030;52.362;9.206;2023-11-18T16:00:25;8.80;93.40
7970;DHT22;4030;52.362;9.206;2023-11-18T16:02:53;8.70;93.40
7970;DHT22;4030;52.362;9.206;2023-11-18T16:05:21;8.70;93.40
7970;DHT22;4030;52.362;9.206;2023-11-18T16:07:49;8.70;93.50
7970;DHT22;4030;52.362;9.206;2023-11-18T16:10:25;8.70;93.50
7970;DHT22;4030;52.362;9.206;2023-11-18T16:12:52;8.70;93.90
7970;DHT22;4030;52.362;9.206;2023-11-18T16:15:26;8.70;93.60
7970;DHT22;4030;52.362;9.206;2023-11-18T16:17:57;8.70;93.60
7970;DHT22;4030;52.362;9.206;2023-11-18T16:20:28;8.70;93.60
7970;DHT22;4030;52.362;9.206;2023-11-18T16:22:57;8.60;93.60
7970;DHT22;4030;52.362;9.206;2023-11-18T16:25:24;8.60;93.70
7970;DHT22;4030;52.362;9.206;2023-11-18T16:27:54;8.60;93.70
7970;DHT22;4030;52.362;9.206;2023-11-18T16:30:24;8.60;93.70
7970;DHT22;4030;52.362;9.206;2023-11-18T16:32:52;8.60;93.80
7970;DHT22;4030;52.362;9.206;2023-11-18T16:35:19;8.60;93.80
7970;DHT22;4030;52.362;9.206;2023-11-18T16:37:45;8.60;93.80
7970;DHT22;4030;52.362;9.206;2023-11-18T16:40:12;8.60;93.80
7970;DHT22;4030;52.362;9.206;2023-11-18T16:42:42;8.60;93.80
7970;DHT22;4030;52.362;9.206;2023-11-18T16:45:09;8.60;93.80